createdAt,value
2023-02-13T00:01:45.966Z,2.65
2023-02-13T00:04:14.469Z,6.40
2023-02-13T00:06:48.089Z,4.03
2023-02-13T00:09:16.106Z,6.53
2023-02-13T00:11:46.212Z,5.50
2023-02-13T00:14:15.509Z,2.70
2023-02-13T00:16:44.543Z,2.80
2023-02-13T00:19:15.708Z,4.60
2023-02-13T00:21:47.681Z,4.30
2023-02-13T00:24:17.844Z,4.28
2023-02-13T00:26:46.494Z,5.80
2023-02-13T00:29:17.943Z,4.28
2023-02-13T00:31:46.222Z,5.95
2023-02-13T00:34:16.393Z,3.75
2023-02-13T00:36:46.466Z,1.50
2023-02-13T00:39:16.635Z,6.55
2023-02-13T00:41:45.785Z,5.82
2023-02-13T00:44:14.398Z,4.13
2023-02-13T00:46:43.480Z,3.55
2023-02-13T00:49:13.943Z,6.55
2023-02-13T00:51:43.507Z,7.63
2023-02-13T00:54:11.882Z,5.40
2023-02-13T00:56:59.645Z,4.95
2023-02-13T00:59:28.543Z,3.40
2023-02-13T01:01:56.921Z,2.42
2023-02-13T01:04:26.566Z,3.65
2023-02-13T01:06:57.803Z,3.33
2023-02-13T01:09:26.112Z,5.65
2023-02-13T01:11:55.304Z,2.70
2023-02-13T01:14:23.438Z,3.85
2023-02-13T01:17:01.461Z,3.67
2023-02-13T01:19:38.118Z,4.70
2023-02-13T01:24:34.364Z,4.50
2023-02-13T01:27:03.574Z,7.10
2023-02-13T01:29:35.414Z,4.43
2023-02-13T01:32:05.463Z,6.72
2023-02-13T01:34:54.523Z,3.97
2023-02-13T01:37:29.523Z,4.78
2023-02-13T01:40:02.467Z,3.83
2023-02-13T01:42:37.303Z,3.72
2023-02-13T01:45:30.036Z,3.15
2023-02-13T01:48:23.698Z,7.88
2023-02-13T01:51:02.308Z,4.18
2023-02-13T01:53:41.655Z,4.70
2023-02-13T01:56:30.281Z,5.97
2023-02-13T01:59:03.714Z,2.40
2023-02-13T02:01:38.180Z,3.22
2023-02-13T02:04:17.250Z,2.53
2023-02-13T02:07:03.851Z,5.53
2023-02-13T02:09:39.529Z,2.53
2023-02-13T02:12:32.607Z,4.75
2023-02-13T02:15:02.686Z,3.97
2023-02-13T02:17:41.596Z,4.28
2023-02-13T02:21:22.379Z,8.68
2023-02-13T02:24:49.837Z,1.58
2023-02-13T02:28:22.102Z,8.02
2023-02-13T02:31:09.209Z,4.20
2023-02-13T02:33:54.678Z,2.55
2023-02-13T02:36:32.966Z,3.47
2023-02-13T02:39:07.916Z,3.25
2023-02-13T02:41:43.535Z,5.43
2023-02-13T02:44:25.313Z,2.95
2023-02-13T02:47:24.705Z,5.55
2023-02-13T02:50:11.136Z,6.43
2023-02-13T02:52:46.630Z,3.05
2023-02-13T02:55:24.858Z,5.68
2023-02-13T02:58:42.688Z,3.35
2023-02-13T03:02:33.592Z,5.18
2023-02-13T03:06:11.885Z,6.22
2023-02-13T03:09:07.982Z,4.15
2023-02-13T03:11:55.624Z,4.18
2023-02-13T03:14:27.718Z,4.90
2023-02-13T03:17:15.665Z,5.28
2023-02-13T03:20:19.663Z,4.85
2023-02-13T03:23:22.883Z,7.88
2023-02-13T03:26:21.738Z,4.72
2023-02-13T03:29:16.511Z,4.60
2023-02-13T03:32:14.338Z,2.88
2023-02-13T03:35:06.068Z,3.03
2023-02-13T03:37:55.828Z,6.45
2023-02-13T03:40:29.592Z,7.03
2023-02-13T03:43:04.205Z,5.50
2023-02-13T03:45:54.806Z,5.93
2023-02-13T03:48:53.345Z,5.33
2023-02-13T03:51:32.785Z,7.65
2023-02-13T03:54:04.130Z,3.45
2023-02-13T03:56:53.606Z,8.57
2023-02-13T03:59:24.234Z,7.18
2023-02-13T04:02:00.329Z,9.27
2023-02-13T04:04:45.998Z,6.22
2023-02-13T04:07:29.735Z,4.13
2023-02-13T04:10:17.766Z,7.28
2023-02-13T04:13:08.092Z,6.70
2023-02-13T04:15:41.989Z,7.95
2023-02-13T04:18:14.798Z,3.95
2023-02-13T04:20:51.840Z,5.88
2023-02-13T04:23:21.762Z,4.85
2023-02-13T04:25:54.890Z,6.07
2023-02-13T04:28:24.653Z,4.10
2023-02-13T04:30:52.847Z,2.88
2023-02-13T04:33:21.881Z,6.78
2023-02-13T04:35:51.807Z,3.60
2023-02-13T04:38:21.014Z,7.72
2023-02-13T04:40:50.678Z,3.88
2023-02-13T04:43:19.794Z,5.72
2023-02-13T04:46:01.457Z,4.75
2023-02-13T04:49:03.890Z,5.80
2023-02-13T04:51:34.817Z,5.45
2023-02-13T04:54:12.861Z,7.90
2023-02-13T04:56:44.006Z,5.32
2023-02-13T04:59:12.616Z,6.13
2023-02-13T05:01:45.024Z,6.97
2023-02-13T05:04:16.651Z,7.90
2023-02-13T05:06:45.126Z,4.07
2023-02-13T05:09:13.781Z,7.43
2023-02-13T05:11:41.952Z,5.05
2023-02-13T05:14:11.226Z,5.22
2023-02-13T05:16:39.497Z,3.72
2023-02-13T05:19:10.826Z,8.80
2023-02-13T05:22:03.891Z,4.45
2023-02-13T05:24:33.224Z,5.15
2023-02-13T05:27:01.904Z,6.00
2023-02-13T05:29:30.072Z,9.18
2023-02-13T05:32:01.441Z,6.10
2023-02-13T05:34:30.104Z,7.70
2023-02-13T05:36:58.801Z,5.38
2023-02-13T05:39:30.695Z,6.35
2023-02-13T05:42:05.075Z,7.93
2023-02-13T05:44:34.958Z,5.20
2023-02-13T05:47:05.488Z,7.63
2023-02-13T05:49:51.814Z,6.00
2023-02-13T05:52:22.851Z,4.90
2023-02-13T05:55:00.157Z,5.95
2023-02-13T05:57:28.661Z,4.47
2023-02-13T06:00:04.779Z,5.65
2023-02-13T06:02:34.950Z,4.13
2023-02-13T06:05:03.124Z,6.82
2023-02-13T06:07:31.243Z,7.68
2023-02-13T06:10:00.283Z,10.43
2023-02-13T06:12:28.746Z,8.50
2023-02-13T06:14:56.854Z,6.15
2023-02-13T06:17:29.252Z,7.30
2023-02-13T06:19:57.533Z,3.85
2023-02-13T06:22:28.019Z,7.50
2023-02-13T06:24:58.162Z,4.32
2023-02-13T06:27:29.614Z,7.13
2023-02-13T06:29:58.299Z,9.10
2023-02-13T06:32:26.766Z,5.65
2023-02-13T06:35:05.715Z,8.40
2023-02-13T06:37:37.378Z,4.40
2023-02-13T06:40:08.521Z,13.48
2023-02-13T06:42:41.290Z,10.02
2023-02-13T06:45:11.135Z,9.90
2023-02-13T06:47:44.103Z,9.10
2023-02-13T06:50:49.100Z,4.78
2023-02-13T06:53:25.171Z,10.50
2023-02-13T06:55:53.796Z,10.07
2023-02-13T06:58:24.385Z,8.18
2023-02-13T07:00:58.994Z,9.57
2023-02-13T07:03:30.811Z,5.45
2023-02-13T07:06:02.030Z,9.02
2023-02-13T07:08:55.457Z,6.40
2023-02-13T07:11:25.667Z,7.35
2023-02-13T07:13:57.349Z,7.25
2023-02-13T07:16:26.946Z,7.93
2023-02-13T07:18:55.897Z,9.55
2023-02-13T07:21:23.777Z,7.35
2023-02-13T07:23:52.430Z,6.40
2023-02-13T07:26:20.876Z,7.40
2023-02-13T07:28:56.969Z,8.63
2023-02-13T07:31:37.207Z,8.10
2023-02-13T07:34:12.027Z,7.05
2023-02-13T07:36:42.690Z,7.35
2023-02-13T07:39:15.903Z,8.90
2023-02-13T07:41:47.899Z,4.80
2023-02-13T07:44:17.327Z,4.80
2023-02-13T07:46:45.430Z,7.13
2023-02-13T07:49:14.794Z,4.90
2023-02-13T07:51:44.901Z,4.00
2023-02-13T07:54:12.886Z,10.02
2023-02-13T07:56:42.122Z,6.57
2023-02-13T07:59:12.858Z,3.85
2023-02-13T08:01:43.006Z,10.63
2023-02-13T08:04:11.478Z,6.75
2023-02-13T08:06:46.005Z,7.55
2023-02-13T08:09:39.576Z,10.95
2023-02-13T08:12:10.198Z,12.00
2023-02-13T08:14:43.721Z,13.40
2023-02-13T08:17:20.159Z,7.20
2023-02-13T08:19:52.075Z,5.35
2023-02-13T08:22:25.871Z,7.00
2023-02-13T08:25:04.725Z,5.25
2023-02-13T08:27:34.082Z,8.00
2023-02-13T08:30:11.611Z,7.45
2023-02-13T08:32:53.800Z,6.32
2023-02-13T08:35:26.991Z,11.75
2023-02-13T08:38:04.305Z,16.92
2023-02-13T08:40:36.232Z,7.63
2023-02-13T08:43:05.821Z,11.18
2023-02-13T08:45:39.749Z,17.38
2023-02-13T08:48:28.891Z,16.67
2023-02-13T08:50:57.086Z,31.35
2023-02-13T08:53:26.007Z,31.83
2023-02-13T08:55:55.512Z,32.80
2023-02-13T08:58:24.546Z,34.10
2023-02-13T09:00:58.807Z,30.65
2023-02-13T09:03:59.557Z,35.72
2023-02-13T09:06:30.481Z,45.08
2023-02-13T09:09:05.373Z,48.95
2023-02-13T09:11:33.850Z,49.85
2023-02-13T09:14:12.195Z,51.85
2023-02-13T09:16:42.272Z,41.00
2023-02-13T09:19:21.299Z,29.15
2023-02-13T09:21:49.716Z,30.50
2023-02-13T09:24:25.325Z,33.90
2023-02-13T09:26:56.969Z,33.65
2023-02-13T09:29:26.544Z,40.00
2023-02-13T09:31:59.062Z,46.90
2023-02-13T09:34:51.568Z,38.60
2023-02-13T09:37:49.056Z,39.17
2023-02-13T09:40:36.480Z,41.50
2023-02-13T09:43:13.823Z,45.40
2023-02-13T09:48:30.109Z,36.35
2023-02-13T09:51:03.978Z,35.17
2023-02-13T09:54:09.228Z,34.00
2023-02-13T09:57:01.210Z,29.35
2023-02-13T10:03:01.587Z,12.75
2023-02-13T10:05:49.795Z,13.40
2023-02-13T10:08:39.190Z,12.50
2023-02-13T10:11:21.803Z,8.35
2023-02-13T10:13:57.224Z,16.58
2023-02-13T10:17:04.433Z,14.25
2023-02-13T10:20:26.958Z,10.23
2023-02-13T10:23:34.775Z,10.98
2023-02-13T10:26:06.489Z,15.95
2023-02-13T10:29:23.537Z,12.50
2023-02-13T10:31:55.443Z,17.80
2023-02-13T10:35:10.398Z,13.48
2023-02-13T10:37:51.305Z,17.88
2023-02-13T10:40:20.398Z,13.65
2023-02-13T10:42:52.981Z,18.70
2023-02-13T10:45:56.826Z,13.25
2023-02-13T10:48:51.510Z,14.82
2023-02-13T10:52:02.754Z,11.48
2023-02-13T10:55:23.816Z,17.58
2023-02-13T10:58:08.079Z,18.27
2023-02-13T11:01:06.037Z,9.55
2023-02-13T11:03:40.138Z,14.38
2023-02-13T11:06:17.817Z,14.68
2023-02-13T11:08:50.242Z,11.75
2023-02-13T11:11:32.227Z,16.50
2023-02-13T11:14:15.846Z,24.95
2023-02-13T11:20:01.537Z,18.98
2023-02-13T11:22:37.792Z,15.55
2023-02-13T11:25:46.370Z,16.73
2023-02-13T11:28:24.015Z,21.10
2023-02-13T11:31:27.172Z,18.58
2023-02-13T11:33:59.408Z,17.98
2023-02-13T11:36:32.483Z,18.08
2023-02-13T11:39:18.251Z,15.48
2023-02-13T11:41:52.492Z,19.85
2023-02-13T11:44:23.972Z,18.55
2023-02-13T11:47:01.548Z,14.02
2023-02-13T11:54:47.760Z,15.35
2023-02-13T12:03:30.673Z,11.77
2023-02-13T12:06:34.835Z,11.50
2023-02-13T12:09:15.634Z,16.42
2023-02-13T12:11:47.651Z,13.88
2023-02-13T12:14:27.620Z,21.10
2023-02-13T12:17:02.500Z,12.30
2023-02-13T12:19:41.349Z,15.75
2023-02-13T12:22:45.790Z,15.40
2023-02-13T12:25:17.442Z,9.82
2023-02-13T12:28:10.870Z,10.70
2023-02-13T12:31:05.988Z,18.75
2023-02-13T12:33:56.806Z,18.65
2023-02-13T12:36:42.894Z,16.48
2023-02-13T12:39:34.983Z,15.77
2023-02-13T12:42:22.722Z,11.52
2023-02-13T12:45:05.781Z,11.63
2023-02-13T12:48:13.931Z,14.75
2023-02-13T12:54:52.807Z,11.68
2023-02-13T12:57:53.241Z,14.27
2023-02-13T13:00:48.966Z,12.90
2023-02-13T13:03:46.790Z,15.32
2023-02-13T13:06:33.824Z,8.75
2023-02-13T13:12:29.186Z,8.18
2023-02-13T13:15:09.926Z,8.07
2023-02-13T13:18:12.983Z,10.85
2023-02-13T13:20:51.252Z,11.02
2023-02-13T13:23:41.213Z,9.48
2023-02-13T13:26:17.526Z,13.50
2023-02-13T13:28:57.208Z,10.25
2023-02-13T13:31:32.398Z,13.77
2023-02-13T13:34:04.273Z,8.05
2023-02-13T13:37:18.044Z,7.70
2023-02-13T13:40:10.370Z,9.90
2023-02-13T13:43:23.787Z,9.18
2023-02-13T13:46:08.344Z,8.27
2023-02-13T13:48:51.458Z,15.23
2023-02-13T13:51:19.505Z,8.25
2023-02-13T13:54:07.175Z,8.07
2023-02-13T13:56:53.961Z,11.75
2023-02-13T13:59:34.351Z,9.10
2023-02-13T14:02:17.721Z,11.10
2023-02-13T14:05:17.448Z,8.85
2023-02-13T14:07:45.721Z,11.18
2023-02-13T14:10:26.439Z,16.95
2023-02-13T14:12:56.395Z,10.98
2023-02-13T14:15:46.608Z,8.45
2023-02-13T14:18:19.641Z,12.57
2023-02-13T14:20:52.502Z,11.05
2023-02-13T14:23:43.023Z,15.77
2023-02-13T14:29:48.949Z,20.30
2023-02-13T14:32:28.925Z,13.25
2023-02-13T14:35:24.508Z,12.15
2023-02-13T14:38:08.293Z,17.20
2023-02-13T14:40:46.849Z,16.23
2023-02-13T14:43:35.516Z,15.40
2023-02-13T14:46:36.085Z,20.70
2023-02-13T14:49:27.367Z,20.15
2023-02-13T14:52:07.495Z,15.63
2023-02-13T14:54:47.086Z,17.80
2023-02-13T14:57:28.945Z,12.00
2023-02-13T15:00:10.911Z,15.55
2023-02-13T15:02:47.553Z,17.52
2023-02-13T15:05:20.593Z,19.23
2023-02-13T15:08:23.335Z,21.15
2023-02-13T15:10:57.622Z,15.23
2023-02-13T15:13:37.440Z,19.95
2023-02-13T15:16:08.058Z,15.65
2023-02-13T15:18:41.321Z,15.30
2023-02-13T15:21:22.737Z,12.82
2023-02-13T15:23:55.889Z,19.13
2023-02-13T15:26:32.425Z,14.30
2023-02-13T15:29:17.389Z,12.48
2023-02-13T15:31:54.581Z,11.75
2023-02-13T15:34:24.785Z,11.50
2023-02-13T15:36:53.077Z,16.40
2023-02-13T15:39:33.922Z,24.88
2023-02-13T15:42:03.591Z,13.52
2023-02-13T15:44:36.201Z,11.98
2023-02-13T15:47:31.314Z,13.20
2023-02-13T15:50:02.048Z,13.25
2023-02-13T15:52:34.314Z,11.77
2023-02-13T15:55:04.858Z,12.18
2023-02-13T15:57:33.502Z,19.75
2023-02-13T16:00:02.915Z,11.57
2023-02-13T16:03:02.144Z,10.93
2023-02-13T16:05:40.491Z,13.50
2023-02-13T16:08:36.460Z,12.68
2023-02-13T16:11:16.981Z,14.48
2023-02-13T16:14:17.525Z,14.68
2023-02-13T16:16:57.013Z,11.23
2023-02-13T16:19:26.506Z,13.93
2023-02-13T16:22:16.652Z,12.85
2023-02-13T16:24:55.064Z,10.43
2023-02-13T16:27:30.467Z,16.23
2023-02-13T16:30:07.096Z,15.20
2023-02-13T16:32:39.089Z,14.38
2023-02-13T16:35:17.796Z,19.40
2023-02-13T16:37:56.921Z,18.20
2023-02-13T16:40:44.864Z,18.00
2023-02-13T16:43:33.954Z,23.67
2023-02-13T16:46:16.560Z,17.67
2023-02-13T16:48:46.672Z,22.48
2023-02-13T16:51:56.567Z,19.50
2023-02-13T16:54:35.732Z,18.55
2023-02-13T16:57:18.301Z,19.13
2023-02-13T17:00:25.548Z,16.90
2023-02-13T17:02:55.633Z,15.38
2023-02-13T17:06:01.913Z,16.63
2023-02-13T17:09:11.364Z,15.10
2023-02-13T17:11:41.134Z,14.88
2023-02-13T17:14:42.514Z,16.98
2023-02-13T17:17:23.397Z,16.98
2023-02-13T17:20:04.502Z,16.95
2023-02-13T17:22:37.962Z,16.20
2023-02-13T17:26:21.090Z,18.42
2023-02-13T17:28:49.783Z,16.50
2023-02-13T17:31:25.755Z,18.70
2023-02-13T17:34:33.013Z,17.20
2023-02-13T17:37:01.989Z,15.88
2023-02-13T17:39:31.650Z,21.13
2023-02-13T17:42:32.745Z,15.38
2023-02-13T17:46:08.324Z,20.90
2023-02-13T17:48:37.140Z,21.58
2023-02-13T17:51:16.015Z,22.70
2023-02-13T17:53:44.744Z,19.02
2023-02-13T17:56:14.652Z,23.80
2023-02-13T17:58:43.379Z,22.88
2023-02-13T18:01:20.692Z,20.75
2023-02-13T18:04:20.120Z,20.80
2023-02-13T18:06:55.843Z,20.27
2023-02-13T18:09:23.824Z,28.33
2023-02-13T18:12:04.807Z,22.75
2023-02-13T18:14:36.945Z,23.98
2023-02-13T18:17:05.869Z,26.63
2023-02-13T18:19:45.693Z,24.38
2023-02-13T18:22:20.538Z,27.25
2023-02-13T18:24:51.281Z,26.95
2023-02-13T18:27:56.675Z,27.50
2023-02-13T18:30:54.131Z,31.20
2023-02-13T18:33:24.077Z,27.23
2023-02-13T18:36:04.952Z,26.73
2023-02-13T18:38:42.824Z,30.52
2023-02-13T18:41:13.190Z,30.77
2023-02-13T18:43:50.389Z,32.38
2023-02-13T18:46:20.110Z,45.90
2023-02-13T18:48:50.920Z,33.20
2023-02-13T18:51:26.989Z,34.63
2023-02-13T18:54:30.372Z,31.98
2023-02-13T18:56:58.891Z,36.45
2023-02-13T18:59:29.065Z,37.05
2023-02-13T19:01:57.032Z,36.28
2023-02-13T19:04:35.920Z,42.70
2023-02-13T19:07:14.183Z,45.53
2023-02-13T19:09:49.238Z,34.33
2023-02-13T19:12:53.648Z,34.92
2023-02-13T19:15:44.024Z,39.03
2023-02-13T19:18:12.643Z,32.78
2023-02-13T19:20:43.194Z,36.63
2023-02-13T19:23:17.125Z,34.97
2023-02-13T19:26:19.672Z,31.63
2023-02-13T19:29:20.552Z,36.22
2023-02-13T19:36:02.333Z,32.42
2023-02-13T19:38:49.756Z,38.25
2023-02-13T19:42:30.739Z,41.95
2023-02-13T19:45:26.962Z,29.98
2023-02-13T19:47:58.244Z,29.08
2023-02-13T19:51:12.006Z,33.20
2023-02-13T19:54:03.948Z,33.72
2023-02-13T19:57:02.985Z,29.13
2023-02-13T20:00:02.223Z,32.35
2023-02-13T20:02:46.436Z,31.73
2023-02-13T20:05:35.840Z,39.35
2023-02-13T20:08:37.637Z,37.05
2023-02-13T20:11:30.702Z,36.47
2023-02-13T20:15:10.525Z,36.13
2023-02-13T20:35:21.253Z,33.63
2023-02-13T20:46:32.404Z,33.03
2023-02-13T20:49:47.333Z,31.45
2023-02-13T20:52:29.707Z,32.97
2023-02-13T20:55:12.208Z,34.10
2023-02-13T20:58:28.653Z,34.60
2023-02-13T21:00:57.355Z,34.17
2023-02-13T21:03:41.563Z,34.47
2023-02-13T21:06:36.078Z,36.60
2023-02-13T21:09:40.679Z,37.08
2023-02-13T21:12:10.852Z,36.63
2023-02-13T21:14:41.081Z,33.75
2023-02-13T21:17:21.234Z,36.67
2023-02-13T21:21:11.113Z,27.65
2023-02-13T21:25:32.186Z,29.00
2023-02-13T21:28:10.972Z,39.20
2023-02-13T21:50:39.507Z,29.98
2023-02-13T21:53:10.169Z,29.65
2023-02-13T22:00:34.802Z,23.52
2023-02-13T22:03:33.522Z,26.35
2023-02-13T22:06:18.412Z,26.85
2023-02-13T22:09:11.143Z,25.92
2023-02-13T22:14:27.324Z,30.17
2023-02-13T22:16:59.462Z,21.98
2023-02-13T22:20:46.564Z,37.45
2023-02-13T22:23:18.460Z,31.83
2023-02-13T22:25:58.654Z,28.42
2023-02-13T22:29:23.946Z,25.55
2023-02-13T22:32:18.339Z,23.65
2023-02-13T22:35:58.465Z,21.60
2023-02-13T22:39:12.642Z,20.48
2023-02-13T22:41:58.506Z,22.10
2023-02-13T22:44:34.450Z,28.20
2023-02-13T22:47:11.210Z,20.73
2023-02-13T22:49:54.560Z,23.77
2023-02-13T22:57:52.657Z,20.05
2023-02-13T23:01:31.007Z,19.40
2023-02-13T23:09:34.396Z,20.63
2023-02-13T23:14:05.865Z,21.23
2023-02-13T23:26:34.183Z,25.02
2023-02-13T23:36:02.747Z,21.80
2023-02-13T23:39:15.171Z,25.77
2023-02-13T23:43:17.252Z,24.55
2023-02-13T23:46:11.429Z,24.98
